createdAt,value
2018-09-19T00:03:43.662Z,68.55
2018-09-19T00:08:47.206Z,68.66
2018-09-19T00:13:50.795Z,68.39
2018-09-19T00:18:54.901Z,69.51
2018-09-19T00:23:58.648Z,69.23
2018-09-19T00:29:02.344Z,69.93
2018-09-19T00:34:06.002Z,70.42
2018-09-19T00:39:10.341Z,69.89
2018-09-19T00:44:15.165Z,71.47
2018-09-19T00:49:19.415Z,71.45
2018-09-19T00:54:22.934Z,73.86
2018-09-19T00:59:26.590Z,76.13
2018-09-19T01:04:30.513Z,77.90
2018-09-19T01:09:34.531Z,76.15
2018-09-19T01:14:38.124Z,75.08
2018-09-19T01:19:41.717Z,75.63
2018-09-19T01:24:45.315Z,74.70
2018-09-19T01:29:49.065Z,74.13
2018-09-19T01:34:52.860Z,74.34
2018-09-19T01:39:56.422Z,74.88
2018-09-19T01:44:59.985Z,73.88
2018-09-19T01:50:03.678Z,74.81
2018-09-19T01:55:07.227Z,74.02
2018-09-19T02:00:11.547Z,72.42
2018-09-19T02:05:15.247Z,73.06
2018-09-19T02:10:18.790Z,72.59
2018-09-19T02:15:22.287Z,73.00
2018-09-19T02:20:25.825Z,72.93
2018-09-19T02:25:29.471Z,73.07
2018-09-19T02:30:33.289Z,73.13
2018-09-19T02:35:36.807Z,73.73
2018-09-19T02:40:40.830Z,73.14
2018-09-19T02:45:44.393Z,73.96
2018-09-19T02:50:47.920Z,74.36
2018-09-19T02:55:51.651Z,74.50
2018-09-19T03:00:55.161Z,73.95
2018-09-19T03:05:58.899Z,74.57
2018-09-19T03:11:07.172Z,75.53
2018-09-19T03:16:10.728Z,76.41
2018-09-19T03:21:14.297Z,76.61
2018-09-19T03:26:17.829Z,76.84
2018-09-19T03:31:21.430Z,76.68
2018-09-19T03:36:24.963Z,76.81
2018-09-19T03:41:28.527Z,78.56
2018-09-19T03:46:32.130Z,78.16
2018-09-19T03:51:35.717Z,79.45
2018-09-19T03:56:39.260Z,79.68
2018-09-19T04:01:42.965Z,79.82
2018-09-19T04:06:46.611Z,80.10
2018-09-19T04:11:50.170Z,80.00
2018-09-19T04:16:53.943Z,81.68
2018-09-19T04:21:57.619Z,81.35
2018-09-19T04:27:01.154Z,80.65
2018-09-19T04:32:04.723Z,80.92
2018-09-19T04:37:08.309Z,81.50
2018-09-19T04:42:11.927Z,81.62
2018-09-19T04:47:16.371Z,82.04
2018-09-19T04:52:19.895Z,81.86
2018-09-19T04:57:23.425Z,82.25
2018-09-19T05:02:26.983Z,82.69
2018-09-19T05:07:30.692Z,81.36
2018-09-19T05:12:34.292Z,81.77
2018-09-19T05:17:37.899Z,81.60
2018-09-19T05:22:41.549Z,81.76
2018-09-19T05:27:45.114Z,81.23
2018-09-19T05:32:48.745Z,83.65
2018-09-19T05:37:52.379Z,84.90
2018-09-19T05:42:55.997Z,84.87
2018-09-19T05:47:59.683Z,82.80
2018-09-19T05:53:04.823Z,82.53
2018-09-19T05:58:08.426Z,81.63
2018-09-19T06:03:12.068Z,83.61
2018-09-19T06:08:15.645Z,83.27
2018-09-19T06:13:19.283Z,84.39
2018-09-19T06:18:23.041Z,83.59
2018-09-19T06:23:26.909Z,84.14
2018-09-19T06:28:37.128Z,83.43
2018-09-19T06:33:40.756Z,82.35
2018-09-19T06:38:44.296Z,81.65
2018-09-19T06:43:48.075Z,80.36
2018-09-19T06:48:51.749Z,79.11
2018-09-19T06:53:55.409Z,77.13
2018-09-19T06:58:58.958Z,76.22
2018-09-19T07:04:02.623Z,74.33
2018-09-19T07:09:07.668Z,72.68
2018-09-19T07:14:11.438Z,70.47
2018-09-19T07:19:15.074Z,69.88
2018-09-19T07:24:18.759Z,68.66
2018-09-19T07:29:22.323Z,68.99
2018-09-19T07:34:25.939Z,67.11
2018-09-19T07:39:29.533Z,65.83
2018-09-19T07:44:33.178Z,64.00
2018-09-19T07:49:36.769Z,63.89
2018-09-19T07:54:40.337Z,63.17
2018-09-19T07:59:43.819Z,61.93
2018-09-19T08:04:47.360Z,59.92
2018-09-19T08:09:50.933Z,59.65
2018-09-19T08:14:54.482Z,58.20
2018-09-19T08:19:58.057Z,58.06
2018-09-19T08:25:01.683Z,57.69
2018-09-19T08:30:08.523Z,57.05
2018-09-19T08:35:12.188Z,54.57
2018-09-19T08:40:15.688Z,54.38
2018-09-19T08:45:19.301Z,54.12
2018-09-19T08:50:22.861Z,53.14
2018-09-19T08:55:27.032Z,53.23
2018-09-19T09:00:30.601Z,52.35
2018-09-19T09:05:34.459Z,52.10
2018-09-19T09:10:38.044Z,51.91
2018-09-19T09:15:41.589Z,52.05
2018-09-19T09:20:45.226Z,52.45
2018-09-19T09:25:48.724Z,52.18
2018-09-19T09:30:59.489Z,53.20
2018-09-19T09:36:03.083Z,52.84
2018-09-19T09:41:07.105Z,52.98
2018-09-19T09:46:10.867Z,53.19
2018-09-19T09:51:14.512Z,51.78
2018-09-19T09:56:18.126Z,50.78
2018-09-19T10:01:22.505Z,49.56
2018-09-19T10:06:26.175Z,49.40
2018-09-19T10:11:29.662Z,48.48
2018-09-19T10:16:33.171Z,47.97
2018-09-19T10:21:36.726Z,48.67
2018-09-19T10:26:40.198Z,47.75
2018-09-19T10:31:43.697Z,47.85
2018-09-19T10:36:47.390Z,48.25
2018-09-19T10:41:51.390Z,47.89
2018-09-19T10:46:55.050Z,48.30
2018-09-19T10:51:58.729Z,47.38
2018-09-19T10:57:02.479Z,47.24
2018-09-19T11:02:06.111Z,46.60
2018-09-19T11:07:17.394Z,44.82
2018-09-19T11:12:20.975Z,45.83
2018-09-19T11:17:24.820Z,46.44
2018-09-19T11:22:28.411Z,46.42
2018-09-19T11:27:32.072Z,44.93
2018-09-19T11:32:35.617Z,43.33
2018-09-19T11:37:39.195Z,42.85
2018-09-19T11:42:42.755Z,41.83
2018-09-19T11:47:46.332Z,42.36
2018-09-19T11:52:50.037Z,44.49
2018-09-19T11:57:53.617Z,45.11
2018-09-19T12:02:57.191Z,43.92
2018-09-19T12:08:00.719Z,43.75
2018-09-19T12:13:04.586Z,44.03
2018-09-19T12:18:08.083Z,43.78
2018-09-19T12:23:11.680Z,44.35
2018-09-19T12:28:15.235Z,44.79
2018-09-19T12:33:18.757Z,44.35
2018-09-19T12:38:22.594Z,44.82
2018-09-19T12:43:26.173Z,44.10
2018-09-19T12:48:29.733Z,44.74
2018-09-19T12:53:33.229Z,44.40
2018-09-19T12:58:37.175Z,43.19
2018-09-19T13:03:40.875Z,43.25
2018-09-19T13:08:44.651Z,43.21
2018-09-19T13:13:48.280Z,41.57
2018-09-19T13:18:51.946Z,41.46
2018-09-19T13:23:55.638Z,41.71
2018-09-19T13:28:59.457Z,41.30
2018-09-19T13:34:03.096Z,41.25
2018-09-19T13:39:09.603Z,41.37
2018-09-19T13:44:20.646Z,41.24
2018-09-19T13:49:27.894Z,40.96
2018-09-19T13:54:31.450Z,42.43
2018-09-19T13:59:35.063Z,40.09
2018-09-19T14:04:38.677Z,41.26
2018-09-19T14:09:42.355Z,41.18
2018-09-19T14:14:48.741Z,40.14
2018-09-19T14:19:52.585Z,41.16
2018-09-19T14:24:56.691Z,41.14
2018-09-19T14:30:00.281Z,40.05
2018-09-19T14:35:03.829Z,40.06
2018-09-19T14:40:07.518Z,41.32
2018-09-19T14:45:11.039Z,39.79
2018-09-19T14:50:14.636Z,39.99
2018-09-19T14:55:18.163Z,38.86
2018-09-19T15:00:28.764Z,39.29
2018-09-19T15:05:32.398Z,39.52
2018-09-19T15:10:36.009Z,39.72
2018-09-19T15:15:39.720Z,39.40
2018-09-19T15:20:43.271Z,39.66
2018-09-19T15:25:47.019Z,39.22
2018-09-19T15:30:50.934Z,38.90
2018-09-19T15:35:54.580Z,39.46
2018-09-19T15:40:58.333Z,38.72
2018-09-19T15:46:01.951Z,38.88
2018-09-19T15:51:05.695Z,38.44
2018-09-19T15:56:09.572Z,39.63
2018-09-19T16:01:13.174Z,40.33
2018-09-19T16:06:16.811Z,39.37
2018-09-19T16:11:20.420Z,41.18
2018-09-19T16:16:23.957Z,41.28
2018-09-19T16:21:27.475Z,40.92
2018-09-19T16:26:31.109Z,40.69
2018-09-19T16:31:34.637Z,40.69
2018-09-19T16:36:38.443Z,41.31
2018-09-19T16:41:42.109Z,41.47
2018-09-19T16:46:45.777Z,42.02
2018-09-19T16:51:55.534Z,42.37
2018-09-19T16:56:59.086Z,43.48
2018-09-19T17:02:02.649Z,44.04
2018-09-19T17:07:06.251Z,43.84
2018-09-19T17:12:09.761Z,44.18
2018-09-19T17:17:13.336Z,44.33
2018-09-19T17:22:16.926Z,44.04
2018-09-19T17:27:21.667Z,44.37
2018-09-19T17:32:25.293Z,45.09
2018-09-19T17:37:28.887Z,45.43
2018-09-19T17:42:32.507Z,46.39
2018-09-19T17:47:36.535Z,45.54
2018-09-19T17:52:40.178Z,46.29
2018-09-19T17:57:43.802Z,46.54
2018-09-19T18:02:47.583Z,46.43
2018-09-19T18:07:51.217Z,46.15
2018-09-19T18:12:54.805Z,46.53
2018-09-19T18:17:58.395Z,46.94
2018-09-19T18:23:02.096Z,47.34
2018-09-19T18:28:05.861Z,47.23
2018-09-19T18:33:09.508Z,47.75
2018-09-19T18:38:13.147Z,48.08
2018-09-19T18:43:16.699Z,47.96
2018-09-19T18:48:20.427Z,48.71
2018-09-19T18:53:24.108Z,49.13
2018-09-19T18:58:27.913Z,49.38
2018-09-19T19:03:32.486Z,49.96
2018-09-19T19:08:36.134Z,50.53
2018-09-19T19:13:39.768Z,50.92
2018-09-19T19:18:43.917Z,51.47
2018-09-19T19:23:47.479Z,51.11
2018-09-19T19:28:55.204Z,50.00
2018-09-19T19:33:58.762Z,49.89
2018-09-19T19:39:02.551Z,49.79
2018-09-19T19:44:06.279Z,49.60
2018-09-19T19:49:09.895Z,49.84
2018-09-19T19:54:13.437Z,50.00
2018-09-19T19:59:17.046Z,49.79
2018-09-19T20:04:20.598Z,50.85
2018-09-19T20:09:24.312Z,51.04
2018-09-19T20:14:27.949Z,51.22
2018-09-19T20:19:31.566Z,51.15
2018-09-19T20:24:35.177Z,51.65
2018-09-19T20:29:38.734Z,51.94
2018-09-19T20:34:42.324Z,52.95
2018-09-19T20:39:45.853Z,53.26
2018-09-19T20:44:49.394Z,53.67
2018-09-19T20:49:52.940Z,55.71
2018-09-19T20:54:57.515Z,57.83
2018-09-19T21:00:01.802Z,58.69
2018-09-19T21:05:05.471Z,59.14
2018-09-19T21:10:09.041Z,60.23
2018-09-19T21:15:12.664Z,61.64
2018-09-19T21:20:16.237Z,62.42
2018-09-19T21:25:20.080Z,63.87
2018-09-19T21:30:32.084Z,63.42
2018-09-19T21:35:35.634Z,62.58
2018-09-19T21:40:39.289Z,63.18
2018-09-19T21:45:42.958Z,62.77
2018-09-19T21:50:47.216Z,63.78
2018-09-19T21:55:50.839Z,63.37
2018-09-19T22:00:59.706Z,63.65
2018-09-19T22:06:03.725Z,63.64
2018-09-19T22:11:07.327Z,63.91
2018-09-19T22:16:10.946Z,63.75
2018-09-19T22:21:14.609Z,65.04
2018-09-19T22:26:18.118Z,64.82
2018-09-19T22:31:21.849Z,64.66
2018-09-19T22:36:25.413Z,65.37
2018-09-19T22:41:29.038Z,65.88
2018-09-19T22:46:32.596Z,65.44
2018-09-19T22:51:36.230Z,65.21
2018-09-19T22:56:39.784Z,65.46
2018-09-19T23:01:43.349Z,66.02
2018-09-19T23:06:48.620Z,66.25
2018-09-19T23:11:52.197Z,65.48
2018-09-19T23:16:55.962Z,65.45
2018-09-19T23:21:59.574Z,66.20
2018-09-19T23:27:03.144Z,66.28
2018-09-19T23:32:06.802Z,66.81
2018-09-19T23:37:10.426Z,66.62
2018-09-19T23:42:14.126Z,66.70
2018-09-19T23:47:17.741Z,66.09
2018-09-19T23:52:21.273Z,66.81
2018-09-19T23:57:24.898Z,67.13
